• Join FlightAware (Why Join?)
  • Login
  • US Flag 
07:29AM EDT


 

Airport Tracker/Info


-or-


 

Live Flight TrackerFlight Track Log ✈ ASQ4283 ✈ 29-Jun-2013 ✈ KALB - KORD

Flight Track Log - Related Links

Times and Time Zones

All times are in EDT time to prevent confusion due to time zone crossing. See the ASQ4283 flight status page for this flight to view local times or setup timezone preferences in your user account.

Time Position Orientation Groundspeed Altitude Reporting Facility
EDT Latitude Longitude Course Direction KTS MPH feet Rate Location/Type
06:04AM 42.7278 -73.8081 283° West 160 184 1,100  Level Boston Center
06:05AM 42.6736 -73.8069 179° South 202 232 2,900 1,680 Climbing Boston Center
06:06AM 42.6853 -73.8806 282° West 258 297 4,500 1,440 Climbing Boston Center
06:07AM 42.8038 -74.1856 285° West  Level FlightAware Approximate
06:07AM 42.7244 -73.9069 334° Northwest 274 315 5,700  Level Boston Center
06:08AM 42.8298 -74.3156 285° West  Level FlightAware Approximate
06:08AM 42.8114 -73.9486 341° North 280 322 8,100  Level Boston Center
06:09AM 42.8523 -74.4468 283° West  Level FlightAware Approximate
06:09AM 42.9003 -73.9961 339° North 280 322 10,100  Level Boston Center
06:10AM 43.0142 -74.0558 339° North 319 367 11,100 1,140 Climbing Boston Center
06:11AM 43.1072 -74.1067 338° Northwest 354 407 12,400 1,200 Climbing Boston Center
06:12AM 43.1556 -74.2133 302° West 337 388 13,500 1,140 Climbing Boston Center
06:13AM 43.1536 -74.3414 269° West 311 358 14,700 900 Climbing Boston Center
06:14AM 43.1578 -74.4581 273° West 340 391 15,400 840 Climbing Boston Center
06:15AM 43.1594 -74.5919 271° West 351 404 16,400 900 Climbing Boston Center
06:16AM 43.1592 -74.7228 270° West 351 404 17,300 960 Climbing Boston Center
06:17AM 43.1583 -74.8594 270° West 351 404 18,400 1,020 Climbing Boston Center
06:18AM 43.1594 -74.9961 271° West 356 410 19,400 900 Climbing Boston Center
06:19AM 43.1622 -75.1500 271° West 362 417 20,300 960 Climbing Boston Center
06:20AM 43.1608 -75.2922 269° West 367 422 21,400 1,080 Climbing Boston Center
06:21AM 43.1633 -75.4347 271° West 367 422 22,500 1,140 Climbing Boston Center
06:22AM 43.1617 -75.5772 269° West 367 422 23,700 1,140 Climbing Boston Center
06:23AM 43.1639 -75.7197 271° West 367 422 24,800 1,080 Climbing Boston Center
06:24AM 43.1619 -75.8589 269° West 367 422 25,900 1,080 Climbing Boston Center
06:25AM 43.1619 -75.9986 270° West 367 422 27,000 1,020 Climbing Boston Center
06:27AM 43.1586 -76.2539 269° West 365 420 29,000 1,020 Climbing Cleveland Center
06:28AM 43.1597 -76.3906 271° West 365 420 30,100 1,080 Climbing Cleveland Center
06:29AM 43.1603 -76.5242 270° West 365 420 31,200 1,140 Climbing Cleveland Center
06:30AM 43.1608 -76.6608 270° West 365 420 32,400 1,200 Climbing Cleveland Center
06:31AM 43.1594 -76.8061 269° West 360 414 33,700 780 Climbing Cleveland Center
06:32AM 43.1597 -76.9456 270° West 354 407 34,000 120 Climbing Cleveland Center
06:33AM 43.1578 -77.0881 269° West 367 422 34,000  Level Cleveland Center
06:34AM 43.1558 -77.2392 269° West 387 445 34,000  Level Cleveland Center
06:35AM 43.1564 -77.4014 270° West 408 470 34,000  Level Cleveland Center
06:36AM 43.1525 -77.5694 268° West 426 490 34,000  Level Cleveland Center
06:37AM 43.1525 -77.7375 270° West 444 511 34,000 480 Level Cleveland Center
06:38AM 43.1503 -77.9083 269° West 449 517 35,000 960 Climbing Cleveland Center
06:39AM 43.1478 -78.0706 269° West 442 509 36,000 480 Climbing Cleveland Center
06:40AM 43.1450 -78.2331 269° West 437 503 36,000  Level Cleveland Center
06:41AM 43.1419 -78.4036 269° West 443 510 36,000  Level Cleveland Center
06:42AM 43.1383 -78.5375 268° West 443 510 36,000  Level Cleveland Center
06:43AM 43.1311 -78.7397 267° West 443 510 36,000  Level Cleveland Center
06:44AM 43.1275 -78.9106 268° West 448 516 36,000  Level Cleveland Center
06:47AM 43.1000 -79.3167 265° West 450 518 36,000  Level Toronto Center
06:48AM 43.1000 -79.5000 270° West 450 518 36,000  Level Toronto Center
06:49AM 43.0833 -79.6500 261° West 450 518 36,000  Level Toronto Center
06:50AM 43.0833 -79.8167 270° West 450 518 36,000  Level Toronto Center
06:51AM 43.0833 -80.0000 270° West 450 518 36,000  Level Toronto Center
06:52AM 43.0667 -80.1500 261° West 450 518 36,000  Level Toronto Center
06:53AM 43.0667 -80.3167 270° West 440 506 36,000  Level Toronto Center
06:54AM 43.0667 -80.5000 270° West 440 506 36,000  Level Toronto Center
06:55AM 43.0500 -80.6667 262° West 440 506 36,000  Level Toronto Center
06:56AM 43.0333 -80.8500 263° West 440 506 36,000  Level Toronto Center
06:57AM 43.0333 -81.0000 270° West 430 495 36,000  Level Toronto Center
06:58AM 43.0167 -81.1667 262° West 430 495 36,000  Level Toronto Center
06:59AM 43.0167 -81.3167 270° West 430 495 36,000  Level Toronto Center
07:00AM 43.0167 -81.4833 270° West 430 495 36,000  Level Toronto Center
07:01AM 43.0167 -81.6667 270° West 430 495 36,000  Level Toronto Center
07:02AM 43.0167 -81.8167 270° West 430 495 36,000  Level Toronto Center
07:03AM 43.0000 -81.9833 262° West 430 495 36,000  Level Toronto Center
07:04AM 43.0000 -82.1333 270° West 440 506 36,000  Level Toronto Center
07:05AM 43.0000 -82.3000 270° West 440 506 36,000  Level Toronto Center
07:06AM 43.0000 -82.4833 270° West 440 506 36,000  Level Toronto Center
07:07AM 43.0017 -82.6783 271° West 438 504 36,000  Level Cleveland Center
07:08AM 42.9967 -82.8456 268° West 438 504 36,000  Level Cleveland Center
07:09AM 42.9911 -83.0100 267° West 438 504 36,000  Level Cleveland Center
07:10AM 42.9853 -83.1800 267° West 438 504 36,000 -60 Level Cleveland Center
07:11AM 42.9814 -83.3475 268° West 445 512 35,900 -420 Descending Cleveland Center
07:12AM 42.9753 -83.5175 267° West 450 518 35,200 -900 Descending Cleveland Center
07:13AM 42.9667 -83.6844 266° West 450 518 34,100 -1,200 Descending Cleveland Center
07:14AM 42.9539 -83.8483 264° West 450 518 32,800 -1,080 Descending Cleveland Center
07:15AM 42.9386 -84.0150 263° West 445 512 32,000 -420 Descending Cleveland Center
07:16AM 42.9250 -84.1844 264° West 445 512 32,000  Level Cleveland Center
07:16AM 42.9175 -84.2556 262° West 450 518 32,000  Level Chicago Center
07:17AM 42.9006 -84.4247 262° West 451 519 32,000  Level Chicago Center
07:18AM 42.8831 -84.5914 262° West 447 514 32,000  Level Chicago Center
07:19AM 42.8653 -84.7594 262° West 448 516 32,000  Level Chicago Center
07:20AM 42.8489 -84.9250 262° West 443 510 32,000  Level Chicago Center
07:21AM 42.8306 -85.0900 261° West 442 509 32,000  Level Chicago Center
07:22AM 42.8133 -85.2544 262° West 439 505 32,000 -540 Level Chicago Center
07:23AM 42.7950 -85.4175 261° West 436 502 31,000 -1,440 Descending Chicago Center
07:24AM 42.7725 -85.5778 259° West 431 496 29,100 -2,040 Descending Chicago Center
07:25AM 42.7428 -85.7397 256° West 436 502 26,900 -2,220 Descending Chicago Center
07:27AM 42.7125 -85.9075 256° West 450 518 24,700 -2,280 Descending Chicago Center
07:28AM 42.6825 -86.0708 256° West 445 512 22,300 -2,340 Descending Chicago Center
07:29AM 42.6497 -86.2533 256° West 417 480 20,000 -1,140 Descending Chicago Center
07:30AM 42.6194 -86.4044 255° West 413 475 20,000 -840 Level Chicago Center
07:31AM 42.5914 -86.5578 256° West 418 481 18,300 -2,220 Descending Chicago Center
07:32AM 42.5642 -86.7058 256° West 408 470 15,600 -2,460 Descending Chicago Center
07:33AM 42.5297 -86.8450 251° West 392 451 13,400 -2,220 Descending Chicago Center
07:34AM 42.4931 -86.9744 249° West 372 428 11,200 -1,680 Descending Chicago Center
07:35AM 42.4572 -87.1017 249° West 364 419 10,000 -780 Descending Chicago Center
07:36AM 42.4250 -87.2194 250° West 333 383 9,700 -960 Descending Chicago Center
07:37AM 42.3989 -87.3178 250° West 285 328 8,100 -1,740 Descending Chicago Center
07:38AM 42.3383 -87.3714 213° Southwest 290 334 6,200 -1,080 Descending Chicago Center
07:39AM 42.2617 -87.4017 196° South 276 318 5,900 -600 Descending Chicago Center
07:40AM 42.1886 -87.4286 195° South 275 316 5,000 -960 Descending Chicago Center
07:41AM 42.1136 -87.4303 181° South 272 313 4,000 -540 Descending Chicago Center
07:42AM 42.0222 -87.4233 177° South 274 315 4,000 -60 Level Chicago Center
07:43AM 41.9831 -87.4900 232° Southwest 247 284 3,900 -60 Descending Chicago Center
07:44AM 41.9833 -87.5758 270° West 234 269 3,900  Level Chicago Center
07:45AM 41.9839 -87.6600 271° West 230 265 3,900  Level Chicago Center